Terminal Aerodrome Forecast
Issued by NWS Central Illinois

Home | Current Version | Previous Version | Text Only | Print | Product List | Glossary On
Versions: 1 2 3 4 5 6 7 8 9 10 11 12 13 14 15 16 17 18 19 20 21 22 23 24 25
782
FTUS43 KILX 201725
TAFSPI
TAF
KSPI 201725Z 2018/2118 15015G21KT P6SM SCT080 BKN200
     FM210200 18010KT P6SM -SHRA OVC060
     FM210600 20008KT 3SM -SHRA BR OVC015
     FM210800 21006KT 3SM BR VCSH OVC015
     FM211400 26005KT 4SM BR BKN015=

USA.gov is the U.S. government's official web portal to all federal, state and local government web resources and services.